Latest Weather Observations for Grafton Airport

IDN60801

Issued at 8:05 am EDT Sunday 23 November 2014 (issued every 30 minutes, with the page automatically refreshed every 10 minutes)

About weather observations | Map of weather stations | Latest weather observations for NSW | Other Formats
Station Details ID: 058161 Name: GRAFTON AIRPORT AWS Lat: -29.76 Lon: 153.03 Height: 25.09 m
Data from the previous 72 hours. | See also: Recent months for locations in New South Wales
Date/Time
EDT
Temp
°C
App
Temp
°C
Dew
Point
Rel
Hum
%
Delta-T
°C
Wind Press
QNH
hPa
Press
MSL
hPa
Rain
since 9 am
mm
Dir
 
Spd
km/h
Gust
km/h
Spd
kts
Gust
kts
23/08:00am 25.2 27.6 21.5 80 2.5 N 11 17 6 9 1015.4 1015.3 0.0
23/07:30am 24.3 26.2 21.4 84 1.9 N 13 15 7 8 1015.3 1015.2 0.0
23/07:00am 23.7 25.9 21.2 86 1.6 N 11 15 6 8 1015.1 1015.0 0.0
23/06:30am 23.4 25.3 21.3 88 1.4 NNE 13 17 7 9 1014.7 1014.6 0.0
23/06:00am 23.4 25.4 21.5 89 1.3 NNE 13 15 7 8 1014.6 1014.5 0.0
23/05:30am 23.2 26.0 21.5 90 1.1 N 9 11 5 6 1014.5 1014.4 0.0
23/05:00am 23.3 26.5 21.6 90 1.1 N 7 9 4 5 1014.0 1013.9 0.0
23/04:30am 23.2 26.2 21.3 89 1.2 N 7 9 4 5 1013.5 1013.4 0.0
23/04:00am 23.3 26.4 21.4 89 1.3 N 7 9 4 5 1013.5 1013.4 0.0
23/03:30am 23.3 26.0 21.4 89 1.3 N 9 11 5 6 1013.2 1013.1 0.0
23/03:00am 23.6 26.4 21.5 88 1.4 NNE 9 13 5 7 1013.2 1013.1 0.0
23/02:30am 23.6 28.0 21.3 87 1.5 CALM 0 0 0 0 1013.3 1013.2 0.0
23/02:00am 23.6 28.0 21.3 87 1.5 CALM 0 0 0 0 1013.6 1013.5 0.0
23/01:30am 23.6 27.6 21.3 87 1.5 SSW 2 7 1 4 1013.6 1013.5 0.0
23/01:00am 23.6 26.6 21.3 87 1.5 SW 7 9 4 5 1013.8 1013.7 0.0
23/12:30am 23.8 26.5 21.3 86 1.6 SSW 9 15 5 8 1014.2 1014.1 0.0
23/12:00am 23.9 25.8 21.4 86 1.6 S 13 17 7 9 1014.3 1014.2 0.0
 
Date/Time
EDT
Temp
°C
App
Temp
°C
Dew
Point
Rel
Hum
%
Delta-T
°C
Wind Press
QNH
hPa
Press
MSL
hPa
Rain
since 9 am
mm
Dir
 
Spd
km/h
Gust
km/h
Spd
kts
Gust
kts
22/11:30pm 23.9 25.8 21.4 86 1.6 S 13 17 7 9 1014.5 1014.4 0.0
22/11:00pm 23.9 25.1 21.4 86 1.6 S 17 20 9 11 1014.5 1014.4 0.0
22/10:30pm 23.9 26.1 21.2 85 1.8 S 11 19 6 10 1014.6 1014.5 0.0
22/10:00pm 23.9 25.7 21.2 85 1.8 SSE 13 22 7 12 1014.5 1014.4 0.0
22/09:30pm 24.0 25.8 21.1 84 1.9 SSE 13 20 7 11 1014.3 1014.2 0.0
22/09:00pm 24.0 25.4 21.1 84 1.9 SSE 15 22 8 12 1013.9 1013.8 0.0
22/08:30pm 24.1 25.8 21.0 83 2.0 S 13 19 7 10 1013.7 1013.6 0.0
22/08:00pm 24.1 24.7 21.0 83 2.0 SSE 19 26 10 14 1013.2 1013.1 0.0
22/07:30pm 24.3 25.2 20.8 81 2.3 SSE 17 24 9 13 1012.9 1012.8 0.0
22/07:28pm 24.4 25.3 20.9 81 2.3 SSE 17 24 9 13 1012.9 1012.8 0.0
22/07:00pm 24.9 25.7 20.6 77 2.8 SSE 17 24 9 13 1012.6 1012.5 0.0
22/06:30pm 26.0 26.3 20.8 73 3.4 SSE 20 28 11 15 1012.0 1011.9 0.0
22/06:00pm 26.6 26.9 20.4 69 4.1 ESE 19 24 10 13 1011.8 1011.7 0.0
22/05:30pm 27.1 27.8 20.4 66 4.4 ESE 17 24 9 13 1011.7 1011.6 0.0
22/05:00pm 28.3 29.9 20.8 63 5.0 ESE 13 24 7 13 1011.4 1011.3 0.0
22/04:30pm 28.7 28.8 20.4 60 5.5 SE 20 28 11 15 1011.4 1011.3 0.0
22/04:00pm 28.7 28.6 19.9 59 5.8 SE 20 32 11 17 1011.6 1011.5 0.0
22/03:30pm 29.2 29.5 20.4 59 5.8 SE 19 28 10 15 1011.6 1011.5 0.0
22/03:00pm 29.2 28.8 20.1 58 6.0 SE 22 30 12 16 1011.5 1011.4 0.0
22/02:30pm 29.9 29.6 19.6 54 6.7 E 20 30 11 16 1011.6 1011.5 0.0
22/02:00pm 30.4 29.8 19.7 52 7.0 E 22 30 12 16 1011.6 1011.5 0.0
22/01:30pm 32.0 32.3 20.3 50 7.8 SE 19 32 10 17 1011.8 1011.7 0.0
22/01:00pm 31.7 32.1 20.6 51 7.4 SE 19 28 10 15 1012.2 1012.1 0.0
22/12:30pm 31.4 31.9 20.0 50 7.5 ESE 17 24 9 13 1012.6 1012.5 0.0
22/12:00pm 31.1 32.0 20.1 52 7.3 ESE 15 22 8 12 1012.9 1012.8 0.0
22/11:30am 31.2 32.9 21.7 57 6.4 ENE 15 32 8 17 1013.1 1013.0 0.0
22/11:00am 30.2 32.3 21.0 58 6.1 E 11 20 6 11 1013.3 1013.2 0.0
22/10:30am 29.1 30.0 20.8 61 5.5 E 17 22 9 12 1013.6 1013.5 0.0
22/10:00am 28.1 29.3 20.6 63 5.0 ESE 15 20 8 11 1013.6 1013.5 0.0
22/09:30am 28.1 29.8 20.9 65 4.8 ESE 13 20 7 11 1013.5 1013.4 0.0
22/09:00am 27.1 28.0 20.9 69 4.1 SE 17 20 9 11 1013.4 1013.3 0.0
22/08:30am 27.4 29.5 21.0 68 4.2 SE 11 17 6 9 1013.2 1013.1 0.0
22/08:00am 27.0 31.1 21.5 72 3.7 S 2 6 1 3 1012.9 1012.8 0.0
22/07:30am 24.8 28.1 21.5 82 2.2 S 6 7 3 4 1012.5 1012.4 0.0
22/07:00am 23.0 25.8 20.9 88 1.4 S 7 9 4 5 1012.2 1012.1 0.0
22/06:30am 21.6 24.4 20.8 95 0.5 SSW 7 7 4 4 1011.9 1011.8 0.0
22/06:00am 21.0 24.9 20.3 96 0.5 CALM 0 4 0 2 1011.4 1011.3 0.0
22/05:30am 21.1 23.7 20.4 96 0.5 SSE 7 13 4 7 1010.8 1010.7 0.0
22/05:00am 21.1 24.0 20.6 97 0.3 N 6 7 3 4 1010.1 1010.0 0.0
22/04:53am 20.8 23.3 20.3 97 0.3 N 7 7 4 4 1010.0 1009.9 0.0
22/04:31am 20.5 23.0 19.8 96 0.4 N 6 9 3 5 1009.6 1009.5 0.0
22/04:30am 20.6 23.1 19.9 96 0.4 N 6 9 3 5 1009.6 1009.5 0.0
22/04:10am 20.4 22.6 19.2 93 0.8 N 6 9 3 5 1009.3 1009.2 0.0
22/04:00am 20.7 23.0 19.5 93 0.8 N 6 7 3 4 1009.2 1009.1 0.0
22/03:30am 21.7 24.3 20.0 90 1.1 ENE 6 9 3 5 1008.9 1008.8 0.0
22/03:00am 22.1 26.0 20.4 90 1.1 CALM 0 0 0 0 1009.3 1009.2 0.0
22/02:30am 22.4 24.7 20.7 90 1.1 SW 9 13 5 7 1009.1 1009.0 0.0
22/02:00am 22.5 24.5 20.8 90 1.1 E 11 15 6 8 1008.9 1008.8 0.0
22/01:30am 22.2 24.8 20.5 90 1.1 SW 7 9 4 5 1009.7 1009.6 0.0
22/01:00am 22.5 25.5 20.8 90 1.1 SSW 6 9 3 5 1009.4 1009.3 0.0
22/12:30am 22.7 26.7 20.6 88 1.4 CALM 0 0 0 0 1009.7 1009.6 0.0
22/12:00am 22.9 26.8 20.4 86 1.6 CALM 0 0 0 0 1010.0 1009.9 0.0
 
Date/Time
EDT
Temp
°C
App
Temp
°C
Dew
Point
Rel
Hum
%
Delta-T
°C
Wind Press
QNH
hPa
Press
MSL
hPa
Rain
since 9 am
mm
Dir
 
Spd
km/h
Gust
km/h
Spd
kts
Gust
kts
21/11:30pm 23.5 26.4 20.6 84 1.9 NE 6 7 3 4 1010.1 1010.0 0.0
21/11:00pm 24.0 27.0 20.9 83 2.0 ENE 6 9 3 5 1010.0 1009.9 0.0
21/10:30pm 24.2 27.2 20.9 82 2.2 ENE 6 7 3 4 1009.7 1009.6 0.0
21/10:00pm 24.7 27.2 21.0 80 2.4 E 9 13 5 7 1009.5 1009.4 0.0
21/09:30pm 24.9 27.4 21.0 79 2.6 E 9 13 5 7 1009.4 1009.3 0.0
21/09:00pm 25.1 28.0 21.0 78 2.7 E 7 9 4 5 1009.3 1009.2 0.0
21/08:30pm 25.4 27.5 20.9 76 3.0 ENE 11 15 6 8 1008.8 1008.7 0.0
21/08:00pm 26.2 28.3 21.0 73 3.4 ENE 11 19 6 10 1008.4 1008.3 0.0
21/07:30pm 27.2 28.9 21.0 69 4.1 ENE 13 17 7 9 1008.1 1008.0 0.0
21/07:00pm 28.2 29.6 21.0 65 4.8 ENE 15 22 8 12 1007.6 1007.5 0.0
21/06:30pm 29.6 30.6 21.0 60 5.7 ENE 17 28 9 15 1007.2 1007.1 0.0
21/06:00pm 30.7 31.1 20.9 56 6.6 ENE 20 33 11 18 1006.7 1006.6 0.0
21/05:30pm 32.3 32.7 20.9 51 7.6 ENE 20 28 11 15 1006.3 1006.2 0.0
21/05:00pm 32.3 32.7 20.9 51 7.7 NE 20 30 11 16 1005.8 1005.7 0.0
21/04:30pm 31.6 32.1 21.2 54 7.0 ENE 20 30 11 16 1006.3 1006.2 0.0
21/04:00pm 32.3 32.5 20.5 49 7.9 ENE 20 33 11 18 1006.6 1006.5 0.0
21/03:30pm 34.7 34.4 20.3 43 9.6 NE 22 30 12 16 1006.7 1006.6 0.0
21/03:00pm 35.8 33.6 17.9 34 11.7 NNE 26 35 14 19 1006.9 1006.8 0.0
21/02:30pm 37.5 34.4 17.5 30 13.0 N 30 43 16 23 1007.3 1007.2 0.0
21/02:00pm 37.9 35.9 18.3 31 12.9 NNE 26 39 14 21 1008.2 1008.1 0.0
21/01:30pm 36.7 34.7 18.3 34 12.1 NNE 26 35 14 19 1008.6 1008.5 0.0
21/01:00pm 35.8 34.0 17.9 34 11.7 NNE 24 35 13 19 1009.3 1009.2 0.0
21/12:30pm 35.8 33.6 18.8 36 11.2 NNE 28 35 15 19 1010.1 1010.0 0.0
21/12:00pm 34.1 33.2 18.2 39 10.3 N 20 33 11 18 1010.8 1010.7 0.0
21/11:30am 32.9 31.5 17.9 41 9.7 N 22 33 12 18 1011.4 1011.3 0.0
21/11:00am 32.3 31.7 18.8 44 8.8 N 20 32 11 17 1011.9 1011.8 0.0
21/10:30am 31.0 29.6 18.0 45 8.3 N 22 32 12 17 1012.2 1012.1 0.0
21/10:00am 29.6 28.9 18.7 52 7.0 N 20 30 11 16 1012.8 1012.7 0.0
21/09:30am 29.1 28.5 18.5 52 6.8 N 19 26 10 14 1012.9 1012.8 0.0
21/09:00am 28.0 27.3 18.7 57 6.0 N 20 30 11 16 1013.2 1013.1 0.0
21/08:30am 27.1 27.1 18.9 61 5.3 N 17 26 9 14 1013.4 1013.3 0.0
21/08:00am 25.5 25.8 19.6 70 3.8 N 17 22 9 12 1013.4 1013.3 0.0
21/07:30am 23.6 25.1 19.7 79 2.5 N 11 15 6 8 1013.6 1013.5 0.0
21/07:00am 21.7 23.4 19.4 87 1.5 N 9 15 5 8 1013.4 1013.3 0.0
21/06:30am 21.0 23.3 19.5 91 1.0 NNE 6 9 3 5 1012.8 1012.7 0.0
21/06:00am 20.4 22.0 19.1 92 0.8 N 9 11 5 6 1012.9 1012.8 0.0
21/05:30am 19.9 21.3 18.6 92 0.8 N 9 11 5 6 1012.8 1012.7 0.0
21/05:00am 20.1 21.2 18.8 92 0.8 NNE 11 13 6 7 1012.5 1012.4 0.0
21/04:30am 20.2 22.1 18.9 92 0.8 N 7 9 4 5 1012.6 1012.5 0.0
21/04:00am 20.4 22.1 18.5 89 1.2 N 7 9 4 5 1012.4 1012.3 0.0
21/03:30am 20.8 22.2 18.7 88 1.3 N 9 13 5 7 1012.5 1012.4 0.0
21/03:00am 20.9 22.9 18.8 88 1.3 NW 6 7 3 4 1012.4 1012.3 0.0
21/02:30am 21.1 22.2 18.9 87 1.4 NNE 11 13 6 7 1012.5 1012.4 0.0
21/02:00am 21.2 23.6 18.9 87 1.4 NW 4 7 2 4 1012.9 1012.8 0.0
21/01:30am 21.7 23.0 19.3 86 1.5 NNE 11 15 6 8 1012.9 1012.8 0.0
21/01:00am 21.4 22.2 19.1 87 1.5 N 13 15 7 8 1013.3 1013.2 0.0
21/12:30am 22.4 23.4 19.4 83 1.9 NNE 13 19 7 10 1013.6 1013.5 0.0
21/12:00am 22.1 23.4 19.3 84 1.8 NNE 11 15 6 8 1013.9 1013.8 0.0
 
Date/Time
EDT
Temp
°C
App
Temp
°C
Dew
Point
Rel
Hum
%
Delta-T
°C
Wind Press
QNH
hPa
Press
MSL
hPa
Rain
since 9 am
mm
Dir
 
Spd
km/h
Gust
km/h
Spd
kts
Gust
kts
20/11:30pm 22.8 24.1 19.4 81 2.2 NE 11 17 6 9 1014.1 1014.0 0.0
20/11:00pm 22.9 23.8 19.3 80 2.3 NNE 13 19 7 10 1014.3 1014.2 0.0
20/10:30pm 23.1 23.6 19.3 79 2.4 NNE 15 20 8 11 1014.2 1014.1 0.0
20/10:00pm 23.5 23.3 19.4 78 2.6 NNE 19 24 10 13 1013.9 1013.8 0.0
20/09:30pm 23.7 23.9 19.4 77 2.8 NE 17 22 9 12 1013.6 1013.5 0.0
20/09:00pm 23.9 23.8 19.6 77 2.8 NE 19 24 10 13 1013.2 1013.1 0.0
20/08:30pm 23.9 24.6 19.6 77 2.8 ENE 15 20 8 11 1012.8 1012.7 0.0
20/08:00pm 24.4 24.7 19.7 75 3.0 NE 17 20 9 11 1012.4 1012.3 0.0
20/07:30pm 25.2 25.2 19.8 72 3.5 NE 19 24 10 13 1011.9 1011.8 0.0
20/07:00pm 26.2 26.0 19.8 68 4.2 NE 20 28 11 15 1011.7 1011.6 0.0
20/06:30pm 27.1 26.9 19.7 64 4.8 NE 20 26 11 14 1011.4 1011.3 0.0
20/06:00pm 28.0 27.4 19.8 61 5.4 ENE 22 33 12 18 1011.1 1011.0 0.0
20/05:30pm 28.9 28.4 19.2 55 6.3 ENE 20 32 11 17 1011.0 1010.9 0.0
20/05:00pm 28.9 28.6 19.5 57 6.1 NE 20 30 11 16 1011.2 1011.1 0.0
20/04:30pm 29.2 27.8 18.9 53 6.7 NE 24 35 13 19 1011.5 1011.4 0.0
20/04:00pm 29.9 28.7 19.3 53 6.9 ENE 24 37 13 20 1011.8 1011.7 0.0
20/03:30pm 30.0 28.0 19.1 52 7.1 NE 28 37 15 20 1012.1 1012.0 0.0
20/03:00pm 30.7 29.3 18.8 49 7.7 NE 24 35 13 19 1012.5 1012.4 0.0
20/02:30pm 31.0 30.8 19.7 51 7.4 ENE 20 30 11 16 1013.0 1012.9 0.0
20/02:00pm 31.1 29.6 18.5 47 8.1 N 24 30 13 16 1013.5 1013.4 0.0
20/01:30pm 29.6 29.2 18.1 50 7.4 NE 17 22 9 12 1014.0 1013.9 0.0
20/01:00pm 31.3 30.8 19.0 48 8.0 N 20 33 11 18 1014.5 1014.4 0.0
20/12:30pm 30.7 29.1 18.4 47 7.9 NNE 24 33 13 18 1015.2 1015.1 0.0
20/12:00pm 29.9 29.4 19.0 52 7.1 NNE 20 35 11 19 1015.8 1015.7 0.0
20/11:30am 27.8 28.6 19.1 59 5.6 N 13 26 7 14 1016.3 1016.2 0.0
20/11:00am 27.4 27.4 18.9 59 5.5 NNE 17 24 9 13 1016.8 1016.7 0.0
20/10:30am 26.8 27.9 20.4 68 4.2 N 15 22 8 12 1017.3 1017.2 0.0
20/10:00am 26.1 26.6 19.2 65 4.4 N 15 28 8 15 1017.3 1017.2 0.0
20/09:30am 25.8 27.5 20.1 71 3.7 NNE 11 20 6 11 1017.5 1017.4 0.0
20/09:00am 24.8 27.3 20.3 76 2.9 N 7 11 4 6 1017.6 1017.5 0.2
20/08:52am 23.7 25.3 19.2 76 2.9 N 9 13 5 7 1017.6 1017.5 0.2
20/08:38am 23.1 25.3 19.7 81 2.2 NNW 7 13 4 7 1017.7 1017.6 0.2
20/08:30am 23.3 25.6 19.9 81 2.2 N 7 9 4 5 1017.7 1017.6 0.2

Other Formats:

Comma delimited format used in spreadsheet applications
http://www.bom.gov.au/fwo/IDN60801/IDN60801.95570.axf

JavaScript Object Notation format (JSON) in row-major order
http://www.bom.gov.au/fwo/IDN60801/IDN60801.95570.json